sensor_id;sensor_type;location;lat;lon;timestamp;P1;durP1;ratioP1;P2;durP2;ratioP2
5937;SDS011;2994;51.220;4.412;2023-06-19T00:02:01;7.00;;;2.80;;
5937;SDS011;2994;51.220;4.412;2023-06-19T00:04:27;4.10;;;2.60;;
5937;SDS011;2994;51.220;4.412;2023-06-19T00:06:53;4.83;;;2.87;;
5937;SDS011;2994;51.220;4.412;2023-06-19T00:09:18;2.63;;;2.40;;
5937;SDS011;2994;51.220;4.412;2023-06-19T00:11:44;3.60;;;3.17;;
5937;SDS011;2994;51.220;4.412;2023-06-19T00:14:09;3.50;;;2.67;;
5937;SDS011;2994;51.220;4.412;2023-06-19T00:16:35;3.80;;;2.80;;
5937;SDS011;2994;51.220;4.412;2023-06-19T00:19:00;3.40;;;2.70;;
5937;SDS011;2994;51.220;4.412;2023-06-19T00:21:28;4.13;;;2.47;;
5937;SDS011;2994;51.220;4.412;2023-06-19T00:23:54;3.50;;;3.20;;
5937;SDS011;2994;51.220;4.412;2023-06-19T00:26:20;3.07;;;2.70;;
5937;SDS011;2994;51.220;4.412;2023-06-19T00:28:50;3.27;;;2.73;;
5937;SDS011;2994;51.220;4.412;2023-06-19T00:31:16;3.50;;;2.90;;
5937;SDS011;2994;51.220;4.412;2023-06-19T00:33:42;3.60;;;2.93;;
5937;SDS011;2994;51.220;4.412;2023-06-19T00:36:12;4.57;;;2.43;;
5937;SDS011;2994;51.220;4.412;2023-06-19T00:38:40;3.43;;;2.53;;
5937;SDS011;2994;51.220;4.412;2023-06-19T00:41:06;3.67;;;3.37;;
5937;SDS011;2994;51.220;4.412;2023-06-19T00:43:32;3.23;;;2.90;;
5937;SDS011;2994;51.220;4.412;2023-06-19T00:45:58;3.73;;;3.20;;
5937;SDS011;2994;51.220;4.412;2023-06-19T00:48:24;3.93;;;2.80;;
5937;SDS011;2994;51.220;4.412;2023-06-19T00:50:52;4.30;;;3.03;;
5937;SDS011;2994;51.220;4.412;2023-06-19T00:53:18;5.07;;;3.27;;
5937;SDS011;2994;51.220;4.412;2023-06-19T00:55:44;3.80;;;2.60;;
5937;SDS011;2994;51.220;4.412;2023-06-19T00:58:11;4.20;;;2.83;;
5937;SDS011;2994;51.220;4.412;2023-06-19T01:00:37;4.10;;;3.40;;
5937;SDS011;2994;51.220;4.412;2023-06-19T01:03:02;3.30;;;2.70;;
5937;SDS011;2994;51.220;4.412;2023-06-19T01:05:29;3.93;;;3.07;;
5937;SDS011;2994;51.220;4.412;2023-06-19T01:10:34;4.57;;;2.70;;
5937;SDS011;2994;51.220;4.412;2023-06-19T01:13:17;3.50;;;2.83;;
5937;SDS011;2994;51.220;4.412;2023-06-19T01:15:49;3.53;;;2.90;;
5937;SDS011;2994;51.220;4.412;2023-06-19T01:18:15;4.17;;;3.20;;
5937;SDS011;2994;51.220;4.412;2023-06-19T01:20:41;4.13;;;2.93;;
5937;SDS011;2994;51.220;4.412;2023-06-19T01:23:10;3.20;;;2.80;;
5937;SDS011;2994;51.220;4.412;2023-06-19T01:25:36;3.20;;;2.83;;
5937;SDS011;2994;51.220;4.412;2023-06-19T01:28:02;3.83;;;3.00;;
5937;SDS011;2994;51.220;4.412;2023-06-19T01:30:31;2.97;;;2.70;;
5937;SDS011;2994;51.220;4.412;2023-06-19T01:33:03;4.17;;;2.80;;
5937;SDS011;2994;51.220;4.412;2023-06-19T01:35:45;4.57;;;2.63;;
5937;SDS011;2994;51.220;4.412;2023-06-19T01:38:12;3.27;;;2.80;;
5937;SDS011;2994;51.220;4.412;2023-06-19T01:40:38;3.50;;;3.20;;
5937;SDS011;2994;51.220;4.412;2023-06-19T01:43:05;4.20;;;3.40;;
5937;SDS011;2994;51.220;4.412;2023-06-19T01:45:33;3.93;;;3.50;;
5937;SDS011;2994;51.220;4.412;2023-06-19T01:47:59;3.47;;;3.17;;
5937;SDS011;2994;51.220;4.412;2023-06-19T01:50:24;3.67;;;3.03;;
5937;SDS011;2994;51.220;4.412;2023-06-19T01:52:50;3.07;;;2.77;;
5937;SDS011;2994;51.220;4.412;2023-06-19T01:55:16;4.10;;;3.57;;
5937;SDS011;2994;51.220;4.412;2023-06-19T01:57:42;4.93;;;3.53;;
5937;SDS011;2994;51.220;4.412;2023-06-19T02:00:07;4.40;;;4.00;;
5937;SDS011;2994;51.220;4.412;2023-06-19T02:02:35;3.50;;;3.20;;
5937;SDS011;2994;51.220;4.412;2023-06-19T02:05:01;4.90;;;3.40;;
5937;SDS011;2994;51.220;4.412;2023-06-19T02:07:26;4.37;;;3.70;;
5937;SDS011;2994;51.220;4.412;2023-06-19T02:09:52;4.43;;;3.80;;
5937;SDS011;2994;51.220;4.412;2023-06-19T02:12:17;5.50;;;3.67;;
5937;SDS011;2994;51.220;4.412;2023-06-19T02:14:43;4.50;;;3.63;;
5937;SDS011;2994;51.220;4.412;2023-06-19T02:17:08;4.53;;;3.97;;
5937;SDS011;2994;51.220;4.412;2023-06-19T02:19:34;5.13;;;4.63;;
5937;SDS011;2994;51.220;4.412;2023-06-19T02:21:59;5.80;;;4.13;;
5937;SDS011;2994;51.220;4.412;2023-06-19T02:24:25;5.70;;;4.10;;
5937;SDS011;2994;51.220;4.412;2023-06-19T02:26:50;5.00;;;3.87;;
5937;SDS011;2994;51.220;4.412;2023-06-19T02:29:16;5.50;;;4.13;;
5937;SDS011;2994;51.220;4.412;2023-06-19T02:31:41;6.57;;;3.60;;
5937;SDS011;2994;51.220;4.412;2023-06-19T02:34:07;5.53;;;4.50;;
5937;SDS011;2994;51.220;4.412;2023-06-19T02:36:34;6.90;;;4.40;;
5937;SDS011;2994;51.220;4.412;2023-06-19T02:39:00;5.63;;;3.63;;
5937;SDS011;2994;51.220;4.412;2023-06-19T02:41:26;4.60;;;4.20;;
5937;SDS011;2994;51.220;4.412;2023-06-19T02:43:52;4.63;;;3.83;;
5937;SDS011;2994;51.220;4.412;2023-06-19T02:46:17;5.50;;;4.40;;
5937;SDS011;2994;51.220;4.412;2023-06-19T02:48:43;4.83;;;4.23;;
5937;SDS011;2994;51.220;4.412;2023-06-19T02:51:08;5.03;;;4.40;;
5937;SDS011;2994;51.220;4.412;2023-06-19T02:53:34;5.30;;;4.80;;
5937;SDS011;2994;51.220;4.412;2023-06-19T02:55:59;6.43;;;4.90;;
5937;SDS011;2994;51.220;4.412;2023-06-19T02:58:25;5.67;;;5.17;;
5937;SDS011;2994;51.220;4.412;2023-06-19T03:00:51;6.30;;;4.33;;
5937;SDS011;2994;51.220;4.412;2023-06-19T03:03:17;4.50;;;4.10;;
5937;SDS011;2994;51.220;4.412;2023-06-19T03:05:42;5.97;;;5.40;;
5937;SDS011;2994;51.220;4.412;2023-06-19T03:08:08;6.80;;;5.37;;
5937;SDS011;2994;51.220;4.412;2023-06-19T03:10:34;7.17;;;4.77;;
5937;SDS011;2994;51.220;4.412;2023-06-19T03:12:59;7.23;;;5.50;;
5937;SDS011;2994;51.220;4.412;2023-06-19T03:15:25;5.30;;;4.83;;
5937;SDS011;2994;51.220;4.412;2023-06-19T03:17:52;5.50;;;5.00;;
5937;SDS011;2994;51.220;4.412;2023-06-19T03:20:18;6.53;;;5.80;;
5937;SDS011;2994;51.220;4.412;2023-06-19T03:22:44;7.87;;;5.80;;
5937;SDS011;2994;51.220;4.412;2023-06-19T03:25:09;5.33;;;4.83;;
5937;SDS011;2994;51.220;4.412;2023-06-19T03:27:35;5.20;;;4.33;;
5937;SDS011;2994;51.220;4.412;2023-06-19T03:30:01;4.67;;;4.27;;
5937;SDS011;2994;51.220;4.412;2023-06-19T03:32:31;5.07;;;4.63;;
5937;SDS011;2994;51.220;4.412;2023-06-19T03:34:57;5.47;;;4.97;;
5937;SDS011;2994;51.220;4.412;2023-06-19T03:37:22;5.40;;;4.50;;
5937;SDS011;2994;51.220;4.412;2023-06-19T03:39:47;4.60;;;4.20;;
5937;SDS011;2994;51.220;4.412;2023-06-19T03:42:13;3.50;;;3.00;;
5937;SDS011;2994;51.220;4.412;2023-06-19T03:44:38;3.13;;;2.80;;
5937;SDS011;2994;51.220;4.412;2023-06-19T03:47:05;4.90;;;3.47;;
5937;SDS011;2994;51.220;4.412;2023-06-19T03:49:31;5.77;;;4.30;;
5937;SDS011;2994;51.220;4.412;2023-06-19T03:51:56;4.23;;;3.70;;
5937;SDS011;2994;51.220;4.412;2023-06-19T03:54:22;3.87;;;3.47;;
5937;SDS011;2994;51.220;4.412;2023-06-19T03:56:47;4.53;;;4.13;;
5937;SDS011;2994;51.220;4.412;2023-06-19T03:59:12;4.90;;;4.50;;
5937;SDS011;2994;51.220;4.412;2023-06-19T04:01:38;5.17;;;4.57;;
5937;SDS011;2994;51.220;4.412;2023-06-19T04:04:03;5.83;;;4.77;;
5937;SDS011;2994;51.220;4.412;2023-06-19T04:06:29;6.00;;;5.40;;
5937;SDS011;2994;51.220;4.412;2023-06-19T04:08:54;5.77;;;4.90;;
5937;SDS011;2994;51.220;4.412;2023-06-19T04:11:20;7.43;;;5.30;;
5937;SDS011;2994;51.220;4.412;2023-06-19T04:13:46;6.37;;;5.03;;
5937;SDS011;2994;51.220;4.412;2023-06-19T04:16:11;7.07;;;5.83;;
5937;SDS011;2994;51.220;4.412;2023-06-19T04:18:37;7.87;;;7.17;;
5937;SDS011;2994;51.220;4.412;2023-06-19T04:21:03;8.63;;;7.50;;
5937;SDS011;2994;51.220;4.412;2023-06-19T04:23:28;7.40;;;6.70;;
5937;SDS011;2994;51.220;4.412;2023-06-19T04:25:53;9.30;;;8.43;;
5937;SDS011;2994;51.220;4.412;2023-06-19T04:28:19;8.77;;;7.87;;
5937;SDS011;2994;51.220;4.412;2023-06-19T04:30:44;7.37;;;6.67;;
5937;SDS011;2994;51.220;4.412;2023-06-19T04:33:10;7.20;;;6.50;;
5937;SDS011;2994;51.220;4.412;2023-06-19T04:35:35;7.80;;;7.07;;
5937;SDS011;2994;51.220;4.412;2023-06-19T04:38:05;7.60;;;6.90;;
5937;SDS011;2994;51.220;4.412;2023-06-19T04:40:33;7.30;;;6.70;;
5937;SDS011;2994;51.220;4.412;2023-06-19T04:43:00;6.97;;;6.27;;
5937;SDS011;2994;51.220;4.412;2023-06-19T04:45:27;7.43;;;6.20;;
5937;SDS011;2994;51.220;4.412;2023-06-19T04:47:53;7.83;;;7.03;;
5937;SDS011;2994;51.220;4.412;2023-06-19T04:50:18;7.80;;;7.00;;
5937;SDS011;2994;51.220;4.412;2023-06-19T04:52:44;7.93;;;7.13;;
5937;SDS011;2994;51.220;4.412;2023-06-19T04:55:09;8.47;;;6.77;;
5937;SDS011;2994;51.220;4.412;2023-06-19T04:57:37;9.00;;;7.87;;
5937;SDS011;2994;51.220;4.412;2023-06-19T05:00:04;9.77;;;7.60;;
5937;SDS011;2994;51.220;4.412;2023-06-19T05:02:35;10.20;;;7.87;;
5937;SDS011;2994;51.220;4.412;2023-06-19T05:05:00;10.30;;;8.53;;
5937;SDS011;2994;51.220;4.412;2023-06-19T05:07:31;8.97;;;8.10;;
5937;SDS011;2994;51.220;4.412;2023-06-19T05:09:57;10.03;;;8.20;;
5937;SDS011;2994;51.220;4.412;2023-06-19T05:12:23;11.10;;;8.87;;
5937;SDS011;2994;51.220;4.412;2023-06-19T05:14:49;10.50;;;9.40;;
5937;SDS011;2994;51.220;4.412;2023-06-19T05:17:15;10.23;;;8.80;;
5937;SDS011;2994;51.220;4.412;2023-06-19T05:19:40;12.13;;;9.40;;
5937;SDS011;2994;51.220;4.412;2023-06-19T05:22:05;9.67;;;8.63;;
5937;SDS011;2994;51.220;4.412;2023-06-19T05:24:31;10.73;;;9.43;;
5937;SDS011;2994;51.220;4.412;2023-06-19T05:26:57;11.27;;;10.17;;
5937;SDS011;2994;51.220;4.412;2023-06-19T05:29:23;11.60;;;10.27;;
5937;SDS011;2994;51.220;4.412;2023-06-19T05:31:48;11.27;;;10.17;;
5937;SDS011;2994;51.220;4.412;2023-06-19T05:34:14;11.30;;;10.23;;
5937;SDS011;2994;51.220;4.412;2023-06-19T05:36:39;12.13;;;10.93;;
5937;SDS011;2994;51.220;4.412;2023-06-19T05:39:05;11.10;;;9.10;;
5937;SDS011;2994;51.220;4.412;2023-06-19T05:41:30;12.20;;;10.97;;
5937;SDS011;2994;51.220;4.412;2023-06-19T05:43:56;11.90;;;10.60;;
5937;SDS011;2994;51.220;4.412;2023-06-19T05:46:21;11.37;;;10.27;;
5937;SDS011;2994;51.220;4.412;2023-06-19T05:48:47;13.90;;;11.63;;
5937;SDS011;2994;51.220;4.412;2023-06-19T05:51:12;14.73;;;12.10;;
5937;SDS011;2994;51.220;4.412;2023-06-19T05:53:39;11.90;;;10.80;;
5937;SDS011;2994;51.220;4.412;2023-06-19T05:56:04;14.20;;;12.10;;
5937;SDS011;2994;51.220;4.412;2023-06-19T05:58:30;14.13;;;11.13;;
5937;SDS011;2994;51.220;4.412;2023-06-19T06:00:56;13.67;;;12.37;;
5937;SDS011;2994;51.220;4.412;2023-06-19T06:03:23;12.90;;;11.60;;
5937;SDS011;2994;51.220;4.412;2023-06-19T06:05:53;13.07;;;11.87;;
5937;SDS011;2994;51.220;4.412;2023-06-19T06:08:18;16.27;;;12.50;;
5937;SDS011;2994;51.220;4.412;2023-06-19T06:10:44;14.27;;;11.50;;
5937;SDS011;2994;51.220;4.412;2023-06-19T06:13:09;14.27;;;12.83;;
5937;SDS011;2994;51.220;4.412;2023-06-19T06:15:35;14.70;;;12.83;;
5937;SDS011;2994;51.220;4.412;2023-06-19T06:18:00;13.97;;;12.60;;
5937;SDS011;2994;51.220;4.412;2023-06-19T06:20:28;14.40;;;12.23;;
5937;SDS011;2994;51.220;4.412;2023-06-19T06:22:54;16.00;;;14.30;;
5937;SDS011;2994;51.220;4.412;2023-06-19T06:25:19;13.20;;;11.77;;
5937;SDS011;2994;51.220;4.412;2023-06-19T06:27:45;17.43;;;13.30;;
5937;SDS011;2994;51.220;4.412;2023-06-19T06:30:11;16.67;;;14.93;;
5937;SDS011;2994;51.220;4.412;2023-06-19T06:32:37;19.03;;;15.50;;
5937;SDS011;2994;51.220;4.412;2023-06-19T06:35:02;18.40;;;14.83;;
5937;SDS011;2994;51.220;4.412;2023-06-19T06:37:29;17.10;;;15.33;;
5937;SDS011;2994;51.220;4.412;2023-06-19T06:39:54;18.30;;;14.83;;
5937;SDS011;2994;51.220;4.412;2023-06-19T06:42:20;20.00;;;16.17;;
5937;SDS011;2994;51.220;4.412;2023-06-19T06:44:45;17.27;;;15.30;;
5937;SDS011;2994;51.220;4.412;2023-06-19T06:47:11;17.50;;;15.53;;
5937;SDS011;2994;51.220;4.412;2023-06-19T06:49:36;20.13;;;15.80;;
5937;SDS011;2994;51.220;4.412;2023-06-19T06:52:03;16.40;;;14.50;;
5937;SDS011;2994;51.220;4.412;2023-06-19T06:54:29;18.97;;;15.17;;
5937;SDS011;2994;51.220;4.412;2023-06-19T06:56:54;15.20;;;13.67;;
5937;SDS011;2994;51.220;4.412;2023-06-19T06:59:23;18.00;;;13.13;;
5937;SDS011;2994;51.220;4.412;2023-06-19T07:01:54;14.30;;;12.73;;
5937;SDS011;2994;51.220;4.412;2023-06-19T07:04:20;13.70;;;11.47;;
5937;SDS011;2994;51.220;4.412;2023-06-19T07:06:45;15.37;;;13.80;;
5937;SDS011;2994;51.220;4.412;2023-06-19T07:09:11;14.97;;;13.37;;
5937;SDS011;2994;51.220;4.412;2023-06-19T07:11:36;15.80;;;12.00;;
5937;SDS011;2994;51.220;4.412;2023-06-19T07:14:02;15.13;;;12.63;;
5937;SDS011;2994;51.220;4.412;2023-06-19T07:16:27;16.77;;;13.13;;
5937;SDS011;2994;51.220;4.412;2023-06-19T07:18:53;14.00;;;12.70;;
5937;SDS011;2994;51.220;4.412;2023-06-19T07:21:19;12.40;;;11.10;;
5937;SDS011;2994;51.220;4.412;2023-06-19T07:23:44;12.73;;;10.40;;
5937;SDS011;2994;51.220;4.412;2023-06-19T07:26:10;12.63;;;11.30;;
5937;SDS011;2994;51.220;4.412;2023-06-19T07:28:36;13.27;;;10.70;;
5937;SDS011;2994;51.220;4.412;2023-06-19T07:31:02;14.23;;;11.83;;
5937;SDS011;2994;51.220;4.412;2023-06-19T07:33:28;13.83;;;12.00;;
5937;SDS011;2994;51.220;4.412;2023-06-19T07:35:57;13.73;;;11.47;;
5937;SDS011;2994;51.220;4.412;2023-06-19T07:38:22;16.70;;;10.97;;
5937;SDS011;2994;51.220;4.412;2023-06-19T07:40:48;12.73;;;10.40;;
5937;SDS011;2994;51.220;4.412;2023-06-19T07:43:14;11.73;;;10.03;;
5937;SDS011;2994;51.220;4.412;2023-06-19T07:45:40;14.60;;;11.47;;
5937;SDS011;2994;51.220;4.412;2023-06-19T07:48:05;13.07;;;11.77;;
5937;SDS011;2994;51.220;4.412;2023-06-19T07:50:30;11.17;;;9.97;;
5937;SDS011;2994;51.220;4.412;2023-06-19T07:52:57;13.57;;;11.60;;
5937;SDS011;2994;51.220;4.412;2023-06-19T07:55:22;11.73;;;10.50;;
5937;SDS011;2994;51.220;4.412;2023-06-19T07:57:48;13.17;;;11.33;;
5937;SDS011;2994;51.220;4.412;2023-06-19T08:00:13;12.57;;;11.07;;
5937;SDS011;2994;51.220;4.412;2023-06-19T08:02:39;12.67;;;10.40;;
5937;SDS011;2994;51.220;4.412;2023-06-19T08:05:06;12.30;;;11.00;;
5937;SDS011;2994;51.220;4.412;2023-06-19T08:07:33;13.30;;;10.80;;
5937;SDS011;2994;51.220;4.412;2023-06-19T08:09:58;14.80;;;12.50;;
5937;SDS011;2994;51.220;4.412;2023-06-19T08:12:24;11.60;;;10.40;;
5937;SDS011;2994;51.220;4.412;2023-06-19T08:14:49;10.13;;;9.13;;
5937;SDS011;2994;51.220;4.412;2023-06-19T08:17:15;14.10;;;10.97;;
5937;SDS011;2994;51.220;4.412;2023-06-19T08:19:40;12.63;;;9.60;;
5937;SDS011;2994;51.220;4.412;2023-06-19T08:22:07;11.80;;;10.40;;
5937;SDS011;2994;51.220;4.412;2023-06-19T08:24:33;12.70;;;11.40;;
5937;SDS011;2994;51.220;4.412;2023-06-19T08:27:00;13.43;;;12.03;;
5937;SDS011;2994;51.220;4.412;2023-06-19T08:29:26;11.73;;;10.47;;
5937;SDS011;2994;51.220;4.412;2023-06-19T08:31:51;13.13;;;11.20;;
5937;SDS011;2994;51.220;4.412;2023-06-19T08:34:16;12.80;;;11.00;;
5937;SDS011;2994;51.220;4.412;2023-06-19T08:36:42;12.33;;;10.80;;
5937;SDS011;2994;51.220;4.412;2023-06-19T08:39:07;15.70;;;10.73;;
5937;SDS011;2994;51.220;4.412;2023-06-19T08:41:33;13.30;;;10.10;;
5937;SDS011;2994;51.220;4.412;2023-06-19T08:44:00;13.70;;;12.13;;
5937;SDS011;2994;51.220;4.412;2023-06-19T08:46:25;14.07;;;11.70;;
5937;SDS011;2994;51.220;4.412;2023-06-19T08:48:51;12.80;;;10.70;;
5937;SDS011;2994;51.220;4.412;2023-06-19T08:51:19;12.13;;;10.90;;
5937;SDS011;2994;51.220;4.412;2023-06-19T08:53:55;12.37;;;9.97;;
5937;SDS011;2994;51.220;4.412;2023-06-19T08:56:21;12.10;;;10.63;;
5937;SDS011;2994;51.220;4.412;2023-06-19T08:58:47;13.40;;;12.10;;
5937;SDS011;2994;51.220;4.412;2023-06-19T09:01:19;14.63;;;11.90;;
5937;SDS011;2994;51.220;4.412;2023-06-19T09:03:45;15.10;;;11.37;;
5937;SDS011;2994;51.220;4.412;2023-06-19T09:06:14;12.27;;;11.00;;
5937;SDS011;2994;51.220;4.412;2023-06-19T09:08:41;12.50;;;10.60;;
5937;SDS011;2994;51.220;4.412;2023-06-19T09:11:06;12.30;;;11.00;;
5937;SDS011;2994;51.220;4.412;2023-06-19T09:13:32;12.50;;;11.20;;
5937;SDS011;2994;51.220;4.412;2023-06-19T09:16:02;12.73;;;10.97;;
5937;SDS011;2994;51.220;4.412;2023-06-19T09:18:29;13.97;;;9.77;;
5937;SDS011;2994;51.220;4.412;2023-06-19T09:20:56;11.77;;;10.53;;
5937;SDS011;2994;51.220;4.412;2023-06-19T09:23:22;11.17;;;10.17;;
5937;SDS011;2994;51.220;4.412;2023-06-19T09:25:52;11.40;;;9.90;;
5937;SDS011;2994;51.220;4.412;2023-06-19T09:28:23;10.83;;;9.77;;
5937;SDS011;2994;51.220;4.412;2023-06-19T09:31:00;11.30;;;8.70;;
5937;SDS011;2994;51.220;4.412;2023-06-19T09:33:28;12.33;;;8.90;;
5937;SDS011;2994;51.220;4.412;2023-06-19T09:35:55;11.37;;;10.27;;
5937;SDS011;2994;51.220;4.412;2023-06-19T09:38:23;13.50;;;11.07;;
5937;SDS011;2994;51.220;4.412;2023-06-19T09:40:51;12.73;;;9.90;;
5937;SDS011;2994;51.220;4.412;2023-06-19T09:43:18;9.97;;;8.93;;
5937;SDS011;2994;51.220;4.412;2023-06-19T09:45:48;11.00;;;9.87;;
5937;SDS011;2994;51.220;4.412;2023-06-19T09:48:15;10.17;;;9.17;;
5937;SDS011;2994;51.220;4.412;2023-06-19T09:50:45;11.37;;;10.10;;
5937;SDS011;2994;51.220;4.412;2023-06-19T09:53:16;13.17;;;10.60;;
5937;SDS011;2994;51.220;4.412;2023-06-19T09:55:44;14.40;;;9.83;;
5937;SDS011;2994;51.220;4.412;2023-06-19T09:58:11;10.90;;;9.53;;
5937;SDS011;2994;51.220;4.412;2023-06-19T10:00:36;9.70;;;8.70;;
5937;SDS011;2994;51.220;4.412;2023-06-19T10:03:02;9.00;;;8.10;;
5937;SDS011;2994;51.220;4.412;2023-06-19T10:05:30;11.00;;;9.00;;
5937;SDS011;2994;51.220;4.412;2023-06-19T10:07:56;10.03;;;8.03;;
5937;SDS011;2994;51.220;4.412;2023-06-19T10:10:25;13.53;;;9.00;;
5937;SDS011;2994;51.220;4.412;2023-06-19T10:12:57;13.20;;;10.23;;
5937;SDS011;2994;51.220;4.412;2023-06-19T10:15:24;8.87;;;7.97;;
5937;SDS011;2994;51.220;4.412;2023-06-19T10:20:22;9.00;;;8.10;;
5937;SDS011;2994;51.220;4.412;2023-06-19T10:22:51;9.03;;;8.10;;
5937;SDS011;2994;51.220;4.412;2023-06-19T10:25:37;8.87;;;7.77;;
5937;SDS011;2994;51.220;4.412;2023-06-19T10:28:15;10.40;;;7.97;;
5937;SDS011;2994;51.220;4.412;2023-06-19T10:30:52;9.77;;;8.77;;
5937;SDS011;2994;51.220;4.412;2023-06-19T10:33:19;8.97;;;8.07;;
5937;SDS011;2994;51.220;4.412;2023-06-19T10:35:45;9.70;;;7.93;;
5937;SDS011;2994;51.220;4.412;2023-06-19T10:38:10;8.90;;;8.00;;
5937;SDS011;2994;51.220;4.412;2023-06-19T10:40:40;12.30;;;8.67;;
5937;SDS011;2994;51.220;4.412;2023-06-19T10:43:05;9.00;;;7.70;;
5937;SDS011;2994;51.220;4.412;2023-06-19T10:45:30;8.40;;;7.20;;
5937;SDS011;2994;51.220;4.412;2023-06-19T10:47:57;7.53;;;6.83;;
5937;SDS011;2994;51.220;4.412;2023-06-19T10:50:25;9.40;;;7.53;;
5937;SDS011;2994;51.220;4.412;2023-06-19T10:52:52;8.20;;;7.23;;
5937;SDS011;2994;51.220;4.412;2023-06-19T10:55:20;7.67;;;6.97;;
5937;SDS011;2994;51.220;4.412;2023-06-19T10:57:46;9.73;;;8.73;;
5937;SDS011;2994;51.220;4.412;2023-06-19T11:00:33;8.33;;;7.40;;
5937;SDS011;2994;51.220;4.412;2023-06-19T11:02:59;8.53;;;7.63;;
5937;SDS011;2994;51.220;4.412;2023-06-19T11:05:25;11.60;;;7.50;;
5937;SDS011;2994;51.220;4.412;2023-06-19T11:07:53;9.07;;;7.40;;
5937;SDS011;2994;51.220;4.412;2023-06-19T11:10:23;8.53;;;6.93;;
5937;SDS011;2994;51.220;4.412;2023-06-19T11:12:53;8.17;;;7.37;;
5937;SDS011;2994;51.220;4.412;2023-06-19T11:15:27;8.33;;;7.53;;
5937;SDS011;2994;51.220;4.412;2023-06-19T11:17:56;7.90;;;7.10;;
5937;SDS011;2994;51.220;4.412;2023-06-19T11:20:22;7.53;;;5.77;;
5937;SDS011;2994;51.220;4.412;2023-06-19T11:22:53;7.03;;;6.33;;
5937;SDS011;2994;51.220;4.412;2023-06-19T11:25:20;6.93;;;6.27;;
5937;SDS011;2994;51.220;4.412;2023-06-19T11:27:46;9.23;;;7.20;;
5937;SDS011;2994;51.220;4.412;2023-06-19T11:30:17;7.73;;;6.50;;
5937;SDS011;2994;51.220;4.412;2023-06-19T11:32:45;7.23;;;6.53;;
5937;SDS011;2994;51.220;4.412;2023-06-19T11:35:13;7.53;;;6.77;;
5937;SDS011;2994;51.220;4.412;2023-06-19T11:37:41;8.23;;;7.00;;
5937;SDS011;2994;51.220;4.412;2023-06-19T11:40:08;8.63;;;6.87;;
5937;SDS011;2994;51.220;4.412;2023-06-19T11:42:51;7.33;;;6.63;;
5937;SDS011;2994;51.220;4.412;2023-06-19T11:45:17;11.20;;;7.80;;
5937;SDS011;2994;51.220;4.412;2023-06-19T11:47:43;10.27;;;7.90;;
5937;SDS011;2994;51.220;4.412;2023-06-19T11:50:12;8.80;;;6.50;;
5937;SDS011;2994;51.220;4.412;2023-06-19T11:52:39;8.77;;;7.67;;
5937;SDS011;2994;51.220;4.412;2023-06-19T11:55:04;9.57;;;6.33;;
5937;SDS011;2994;51.220;4.412;2023-06-19T11:57:30;8.20;;;7.03;;
5937;SDS011;2994;51.220;4.412;2023-06-19T11:59:58;8.30;;;7.50;;
5937;SDS011;2994;51.220;4.412;2023-06-19T12:02:23;9.23;;;7.60;;
5937;SDS011;2994;51.220;4.412;2023-06-19T12:04:49;12.13;;;8.10;;
5937;SDS011;2994;51.220;4.412;2023-06-19T12:07:14;8.23;;;7.37;;
5937;SDS011;2994;51.220;4.412;2023-06-19T12:09:40;8.90;;;7.93;;
5937;SDS011;2994;51.220;4.412;2023-06-19T12:12:07;9.67;;;8.67;;
5937;SDS011;2994;51.220;4.412;2023-06-19T12:14:33;9.40;;;8.50;;
5937;SDS011;2994;51.220;4.412;2023-06-19T12:16:58;8.63;;;7.77;;
5937;SDS011;2994;51.220;4.412;2023-06-19T12:19:24;9.57;;;8.17;;
5937;SDS011;2994;51.220;4.412;2023-06-19T12:21:51;13.23;;;7.93;;
5937;SDS011;2994;51.220;4.412;2023-06-19T12:24:16;9.37;;;7.67;;
5937;SDS011;2994;51.220;4.412;2023-06-19T12:26:41;8.50;;;7.50;;
5937;SDS011;2994;51.220;4.412;2023-06-19T12:29:07;7.93;;;7.13;;
5937;SDS011;2994;51.220;4.412;2023-06-19T12:31:33;12.27;;;8.00;;
5937;SDS011;2994;51.220;4.412;2023-06-19T12:33:59;10.00;;;7.83;;
5937;SDS011;2994;51.220;4.412;2023-06-19T12:36:26;7.33;;;6.63;;
5937;SDS011;2994;51.220;4.412;2023-06-19T12:38:52;7.00;;;6.40;;
5937;SDS011;2994;51.220;4.412;2023-06-19T12:41:19;7.53;;;6.80;;
5937;SDS011;2994;51.220;4.412;2023-06-19T12:43:45;9.13;;;7.50;;
5937;SDS011;2994;51.220;4.412;2023-06-19T12:46:10;8.00;;;7.10;;
5937;SDS011;2994;51.220;4.412;2023-06-19T12:48:36;7.70;;;6.90;;
5937;SDS011;2994;51.220;4.412;2023-06-19T12:51:02;12.40;;;6.60;;
5937;SDS011;2994;51.220;4.412;2023-06-19T12:53:27;6.60;;;6.00;;
5937;SDS011;2994;51.220;4.412;2023-06-19T12:55:56;8.53;;;6.50;;
5937;SDS011;2994;51.220;4.412;2023-06-19T12:58:22;6.60;;;6.00;;
5937;SDS011;2994;51.220;4.412;2023-06-19T13:00:47;7.37;;;6.70;;
5937;SDS011;2994;51.220;4.412;2023-06-19T13:03:13;7.60;;;6.90;;
5937;SDS011;2994;51.220;4.412;2023-06-19T13:05:38;8.20;;;7.50;;
5937;SDS011;2994;51.220;4.412;2023-06-19T13:08:04;8.73;;;6.63;;
5937;SDS011;2994;51.220;4.412;2023-06-19T13:10:29;7.63;;;6.67;;
5937;SDS011;2994;51.220;4.412;2023-06-19T13:12:54;8.80;;;7.47;;
5937;SDS011;2994;51.220;4.412;2023-06-19T13:15:22;7.70;;;6.90;;
5937;SDS011;2994;51.220;4.412;2023-06-19T13:17:47;8.20;;;7.60;;
5937;SDS011;2994;51.220;4.412;2023-06-19T13:20:12;9.27;;;7.70;;
5937;SDS011;2994;51.220;4.412;2023-06-19T13:22:39;8.07;;;7.27;;
5937;SDS011;2994;51.220;4.412;2023-06-19T13:25:04;7.70;;;6.93;;
5937;SDS011;2994;51.220;4.412;2023-06-19T13:27:30;7.63;;;6.67;;
5937;SDS011;2994;51.220;4.412;2023-06-19T13:29:55;7.80;;;7.10;;
5937;SDS011;2994;51.220;4.412;2023-06-19T13:32:21;8.80;;;6.40;;
5937;SDS011;2994;51.220;4.412;2023-06-19T13:34:46;7.10;;;6.50;;
5937;SDS011;2994;51.220;4.412;2023-06-19T13:37:11;9.13;;;6.57;;
5937;SDS011;2994;51.220;4.412;2023-06-19T13:39:37;7.77;;;6.10;;
5937;SDS011;2994;51.220;4.412;2023-06-19T13:42:04;8.47;;;7.57;;
5937;SDS011;2994;51.220;4.412;2023-06-19T13:44:30;6.80;;;6.13;;
5937;SDS011;2994;51.220;4.412;2023-06-19T13:46:56;9.00;;;6.47;;
5937;SDS011;2994;51.220;4.412;2023-06-19T13:49:21;8.37;;;6.60;;
5937;SDS011;2994;51.220;4.412;2023-06-19T13:51:47;8.50;;;6.97;;
5937;SDS011;2994;51.220;4.412;2023-06-19T13:54:12;8.70;;;6.40;;
5937;SDS011;2994;51.220;4.412;2023-06-19T13:56:38;7.70;;;6.70;;
5937;SDS011;2994;51.220;4.412;2023-06-19T13:59:04;7.10;;;6.40;;
5937;SDS011;2994;51.220;4.412;2023-06-19T14:01:30;7.20;;;6.50;;
5937;SDS011;2994;51.220;4.412;2023-06-19T14:03:57;7.77;;;6.17;;
5937;SDS011;2994;51.220;4.412;2023-06-19T14:06:23;7.53;;;6.90;;
5937;SDS011;2994;51.220;4.412;2023-06-19T14:08:49;6.00;;;5.50;;
5937;SDS011;2994;51.220;4.412;2023-06-19T14:11:15;7.00;;;6.27;;
5937;SDS011;2994;51.220;4.412;2023-06-19T14:13:40;6.30;;;5.70;;
5937;SDS011;2994;51.220;4.412;2023-06-19T14:16:06;6.00;;;5.50;;
5937;SDS011;2994;51.220;4.412;2023-06-19T14:18:31;5.43;;;4.93;;
5937;SDS011;2994;51.220;4.412;2023-06-19T14:20:58;5.70;;;5.13;;
5937;SDS011;2994;51.220;4.412;2023-06-19T14:23:23;6.37;;;5.70;;
5937;SDS011;2994;51.220;4.412;2023-06-19T14:25:49;5.80;;;5.30;;
5937;SDS011;2994;51.220;4.412;2023-06-19T14:28:14;6.47;;;5.93;;
5937;SDS011;2994;51.220;4.412;2023-06-19T14:30:40;7.30;;;6.60;;
5937;SDS011;2994;51.220;4.412;2023-06-19T14:33:05;7.30;;;5.77;;
5937;SDS011;2994;51.220;4.412;2023-06-19T14:35:35;9.90;;;7.20;;
5937;SDS011;2994;51.220;4.412;2023-06-19T14:38:00;6.80;;;6.07;;
5937;SDS011;2994;51.220;4.412;2023-06-19T14:40:26;6.60;;;5.67;;
5937;SDS011;2994;51.220;4.412;2023-06-19T14:42:51;5.40;;;4.93;;
5937;SDS011;2994;51.220;4.412;2023-06-19T14:45:16;8.50;;;5.73;;
5937;SDS011;2994;51.220;4.412;2023-06-19T14:47:42;6.07;;;5.47;;
5937;SDS011;2994;51.220;4.412;2023-06-19T14:50:07;6.47;;;5.90;;
5937;SDS011;2994;51.220;4.412;2023-06-19T14:52:33;6.10;;;5.50;;
5937;SDS011;2994;51.220;4.412;2023-06-19T14:54:58;7.63;;;5.70;;
5937;SDS011;2994;51.220;4.412;2023-06-19T14:57:24;5.87;;;5.27;;
5937;SDS011;2994;51.220;4.412;2023-06-19T14:59:51;6.40;;;5.80;;
5937;SDS011;2994;51.220;4.412;2023-06-19T15:02:16;6.50;;;5.53;;
5937;SDS011;2994;51.220;4.412;2023-06-19T15:04:42;7.67;;;5.60;;
5937;SDS011;2994;51.220;4.412;2023-06-19T15:07:07;6.30;;;5.80;;
5937;SDS011;2994;51.220;4.412;2023-06-19T15:09:32;6.00;;;5.50;;